sensor_id;sensor_type;location;lat;lon;timestamp;temperature;humidity
62573;DHT22;48626;51.678;5.806;2022-08-19T00:00:08;19.10;91.20
62573;DHT22;48626;51.678;5.806;2022-08-19T00:02:34;19.10;91.70
62573;DHT22;48626;51.678;5.806;2022-08-19T00:05:00;19.10;91.30
62573;DHT22;48626;51.678;5.806;2022-08-19T00:07:26;19.10;91.30
62573;DHT22;48626;51.678;5.806;2022-08-19T00:09:52;19.00;91.30
62573;DHT22;48626;51.678;5.806;2022-08-19T00:12:17;19.00;91.40
62573;DHT22;48626;51.678;5.806;2022-08-19T00:14:43;19.00;91.40
62573;DHT22;48626;51.678;5.806;2022-08-19T00:17:09;19.00;91.40
62573;DHT22;48626;51.678;5.806;2022-08-19T00:19:35;18.90;91.40
62573;DHT22;48626;51.678;5.806;2022-08-19T00:22:01;18.90;91.30
62573;DHT22;48626;51.678;5.806;2022-08-19T00:24:28;18.90;91.30
62573;DHT22;48626;51.678;5.806;2022-08-19T00:26:55;18.80;91.30
62573;DHT22;48626;51.678;5.806;2022-08-19T00:29:23;18.80;91.40
62573;DHT22;48626;51.678;5.806;2022-08-19T00:31:50;18.80;91.40
62573;DHT22;48626;51.678;5.806;2022-08-19T00:34:19;18.70;91.40
62573;DHT22;48626;51.678;5.806;2022-08-19T00:36:45;18.70;91.40
62573;DHT22;48626;51.678;5.806;2022-08-19T00:39:11;18.70;91.50
62573;DHT22;48626;51.678;5.806;2022-08-19T00:41:38;18.60;91.50
62573;DHT22;48626;51.678;5.806;2022-08-19T00:46:38;18.60;91.60
62573;DHT22;48626;51.678;5.806;2022-08-19T00:49:16;18.60;91.60
62573;DHT22;48626;51.678;5.806;2022-08-19T00:51:47;18.60;91.80
62573;DHT22;48626;51.678;5.806;2022-08-19T00:54:12;18.50;91.50
62573;DHT22;48626;51.678;5.806;2022-08-19T00:56:39;18.50;91.60
62573;DHT22;48626;51.678;5.806;2022-08-19T00:59:06;18.40;91.60
62573;DHT22;48626;51.678;5.806;2022-08-19T01:01:39;18.40;91.80
62573;DHT22;48626;51.678;5.806;2022-08-19T01:04:06;18.40;91.80
62573;DHT22;48626;51.678;5.806;2022-08-19T01:06:33;18.30;91.80
62573;DHT22;48626;51.678;5.806;2022-08-19T01:09:00;18.30;91.80
62573;DHT22;48626;51.678;5.806;2022-08-19T01:11:30;18.30;91.90
62573;DHT22;48626;51.678;5.806;2022-08-19T01:13:57;18.30;91.90
62573;DHT22;48626;51.678;5.806;2022-08-19T01:16:25;18.20;91.90
62573;DHT22;48626;51.678;5.806;2022-08-19T01:18:51;18.30;91.90
62573;DHT22;48626;51.678;5.806;2022-08-19T01:21:34;18.20;92.00
62573;DHT22;48626;51.678;5.806;2022-08-19T01:24:02;18.20;92.00
62573;DHT22;48626;51.678;5.806;2022-08-19T01:26:28;18.20;92.00
62573;DHT22;48626;51.678;5.806;2022-08-19T01:28:56;18.10;92.00
62573;DHT22;48626;51.678;5.806;2022-08-19T01:31:24;18.10;92.00
62573;DHT22;48626;51.678;5.806;2022-08-19T01:33:51;18.10;92.10
62573;DHT22;48626;51.678;5.806;2022-08-19T01:38:55;18.10;92.10
62573;DHT22;48626;51.678;5.806;2022-08-19T01:41:21;18.10;92.20
62573;DHT22;48626;51.678;5.806;2022-08-19T01:43:49;18.10;92.70
62573;DHT22;48626;51.678;5.806;2022-08-19T01:46:15;18.10;92.30
62573;DHT22;48626;51.678;5.806;2022-08-19T01:48:42;18.00;92.20
62573;DHT22;48626;51.678;5.806;2022-08-19T01:51:10;18.00;92.30
62573;DHT22;48626;51.678;5.806;2022-08-19T01:53:36;18.00;92.20
62573;DHT22;48626;51.678;5.806;2022-08-19T01:56:03;17.90;92.20
62573;DHT22;48626;51.678;5.806;2022-08-19T01:58:35;17.90;92.20
62573;DHT22;48626;51.678;5.806;2022-08-19T02:01:03;17.90;92.20
62573;DHT22;48626;51.678;5.806;2022-08-19T02:03:28;17.90;92.20
62573;DHT22;48626;51.678;5.806;2022-08-19T02:05:56;17.90;92.20
62573;DHT22;48626;51.678;5.806;2022-08-19T02:08:23;17.90;92.20
62573;DHT22;48626;51.678;5.806;2022-08-19T02:10:49;17.80;92.20
62573;DHT22;48626;51.678;5.806;2022-08-19T02:13:15;17.90;92.20
62573;DHT22;48626;51.678;5.806;2022-08-19T02:15:41;17.80;92.20
62573;DHT22;48626;51.678;5.806;2022-08-19T02:18:06;17.80;92.20
62573;DHT22;48626;51.678;5.806;2022-08-19T02:20:34;17.80;92.20
62573;DHT22;48626;51.678;5.806;2022-08-19T02:23:00;17.80;92.30
62573;DHT22;48626;51.678;5.806;2022-08-19T02:25:26;17.80;92.30
62573;DHT22;48626;51.678;5.806;2022-08-19T02:27:52;17.70;92.30
62573;DHT22;48626;51.678;5.806;2022-08-19T02:30:20;17.70;92.30
62573;DHT22;48626;51.678;5.806;2022-08-19T02:32:45;17.70;92.20
62573;DHT22;48626;51.678;5.806;2022-08-19T02:35:13;17.60;92.30
62573;DHT22;48626;51.678;5.806;2022-08-19T02:37:40;17.60;92.30
62573;DHT22;48626;51.678;5.806;2022-08-19T02:40:24;17.60;92.40
62573;DHT22;48626;51.678;5.806;2022-08-19T02:42:50;17.60;92.40
62573;DHT22;48626;51.678;5.806;2022-08-19T02:45:16;17.60;92.50
62573;DHT22;48626;51.678;5.806;2022-08-19T02:47:41;17.50;92.60
62573;DHT22;48626;51.678;5.806;2022-08-19T02:50:08;17.60;92.60
62573;DHT22;48626;51.678;5.806;2022-08-19T02:52:35;17.50;92.60
62573;DHT22;48626;51.678;5.806;2022-08-19T02:55:01;17.50;92.70
62573;DHT22;48626;51.678;5.806;2022-08-19T02:57:27;17.50;92.80
62573;DHT22;48626;51.678;5.806;2022-08-19T02:59:53;17.50;92.90
62573;DHT22;48626;51.678;5.806;2022-08-19T03:02:19;17.50;93.00
62573;DHT22;48626;51.678;5.806;2022-08-19T03:04:45;17.40;93.00
62573;DHT22;48626;51.678;5.806;2022-08-19T03:07:13;17.50;93.10
62573;DHT22;48626;51.678;5.806;2022-08-19T03:09:39;17.40;93.10
62573;DHT22;48626;51.678;5.806;2022-08-19T03:12:05;17.50;93.20
62573;DHT22;48626;51.678;5.806;2022-08-19T03:14:32;17.50;93.20
62573;DHT22;48626;51.678;5.806;2022-08-19T03:16:58;17.40;93.30
62573;DHT22;48626;51.678;5.806;2022-08-19T03:19:24;17.40;93.30
62573;DHT22;48626;51.678;5.806;2022-08-19T03:21:51;17.40;93.40
62573;DHT22;48626;51.678;5.806;2022-08-19T03:24:17;17.40;93.40
62573;DHT22;48626;51.678;5.806;2022-08-19T03:26:48;17.40;93.50
62573;DHT22;48626;51.678;5.806;2022-08-19T03:29:15;17.30;93.60
62573;DHT22;48626;51.678;5.806;2022-08-19T03:31:42;17.30;93.60
62573;DHT22;48626;51.678;5.806;2022-08-19T03:34:09;17.30;93.70
62573;DHT22;48626;51.678;5.806;2022-08-19T03:36:37;17.30;93.70
62573;DHT22;48626;51.678;5.806;2022-08-19T03:39:03;17.30;93.90
62573;DHT22;48626;51.678;5.806;2022-08-19T03:41:37;17.30;94.00
62573;DHT22;48626;51.678;5.806;2022-08-19T03:44:03;17.30;94.00
62573;DHT22;48626;51.678;5.806;2022-08-19T03:46:32;17.30;94.00
62573;DHT22;48626;51.678;5.806;2022-08-19T03:49:00;17.30;94.00
62573;DHT22;48626;51.678;5.806;2022-08-19T03:51:30;17.30;94.10
62573;DHT22;48626;51.678;5.806;2022-08-19T03:53:59;17.30;94.10
62573;DHT22;48626;51.678;5.806;2022-08-19T03:56:26;17.30;94.20
62573;DHT22;48626;51.678;5.806;2022-08-19T03:58:54;17.30;94.20
62573;DHT22;48626;51.678;5.806;2022-08-19T04:01:22;17.30;94.30
62573;DHT22;48626;51.678;5.806;2022-08-19T04:03:48;17.30;94.40
62573;DHT22;48626;51.678;5.806;2022-08-19T04:06:17;17.30;94.40
62573;DHT22;48626;51.678;5.806;2022-08-19T04:08:45;17.20;94.50
62573;DHT22;48626;51.678;5.806;2022-08-19T04:11:17;17.20;94.60
62573;DHT22;48626;51.678;5.806;2022-08-19T04:13:42;17.30;94.70
62573;DHT22;48626;51.678;5.806;2022-08-19T04:16:10;17.20;94.70
62573;DHT22;48626;51.678;5.806;2022-08-19T04:18:37;17.20;94.70
62573;DHT22;48626;51.678;5.806;2022-08-19T04:21:04;17.20;94.70
62573;DHT22;48626;51.678;5.806;2022-08-19T04:23:31;17.20;94.70
62573;DHT22;48626;51.678;5.806;2022-08-19T04:25:57;17.20;95.10
62573;DHT22;48626;51.678;5.806;2022-08-19T04:28:23;17.20;94.80
62573;DHT22;48626;51.678;5.806;2022-08-19T04:30:51;17.20;94.80
62573;DHT22;48626;51.678;5.806;2022-08-19T04:33:22;17.10;94.80
62573;DHT22;48626;51.678;5.806;2022-08-19T04:35:50;17.10;94.90
62573;DHT22;48626;51.678;5.806;2022-08-19T04:38:20;17.10;95.00
62573;DHT22;48626;51.678;5.806;2022-08-19T04:40:48;17.10;95.00
62573;DHT22;48626;51.678;5.806;2022-08-19T04:43:34;17.10;95.10
62573;DHT22;48626;51.678;5.806;2022-08-19T04:46:09;17.10;95.30
62573;DHT22;48626;51.678;5.806;2022-08-19T04:48:36;17.10;95.60
62573;DHT22;48626;51.678;5.806;2022-08-19T04:51:07;17.10;95.50
62573;DHT22;48626;51.678;5.806;2022-08-19T04:53:36;17.10;95.60
62573;DHT22;48626;51.678;5.806;2022-08-19T04:56:08;17.10;95.70
62573;DHT22;48626;51.678;5.806;2022-08-19T04:58:35;17.10;95.80
62573;DHT22;48626;51.678;5.806;2022-08-19T05:01:02;17.10;95.90
62573;DHT22;48626;51.678;5.806;2022-08-19T05:03:27;17.10;96.10
62573;DHT22;48626;51.678;5.806;2022-08-19T05:05:56;17.10;96.50
62573;DHT22;48626;51.678;5.806;2022-08-19T05:08:22;17.20;96.50
62573;DHT22;48626;51.678;5.806;2022-08-19T05:10:49;17.20;96.50
62573;DHT22;48626;51.678;5.806;2022-08-19T05:13:17;17.20;96.30
62573;DHT22;48626;51.678;5.806;2022-08-19T05:15:44;17.20;96.30
62573;DHT22;48626;51.678;5.806;2022-08-19T05:18:10;17.20;96.30
62573;DHT22;48626;51.678;5.806;2022-08-19T05:21:10;17.30;96.40
62573;DHT22;48626;51.678;5.806;2022-08-19T05:23:55;17.30;96.60
62573;DHT22;48626;51.678;5.806;2022-08-19T05:26:20;17.30;96.60
62573;DHT22;48626;51.678;5.806;2022-08-19T05:28:46;17.40;96.60
62573;DHT22;48626;51.678;5.806;2022-08-19T05:31:12;17.40;96.50
62573;DHT22;48626;51.678;5.806;2022-08-19T05:33:39;17.40;96.50
62573;DHT22;48626;51.678;5.806;2022-08-19T05:36:05;17.50;96.60
62573;DHT22;48626;51.678;5.806;2022-08-19T05:38:33;17.50;96.70
62573;DHT22;48626;51.678;5.806;2022-08-19T05:40:59;17.60;96.90
62573;DHT22;48626;51.678;5.806;2022-08-19T05:43:24;17.70;96.90
62573;DHT22;48626;51.678;5.806;2022-08-19T05:45:50;17.80;97.00
62573;DHT22;48626;51.678;5.806;2022-08-19T05:48:16;17.80;97.00
62573;DHT22;48626;51.678;5.806;2022-08-19T05:50:46;17.90;97.10
62573;DHT22;48626;51.678;5.806;2022-08-19T05:53:12;18.00;97.20
62573;DHT22;48626;51.678;5.806;2022-08-19T05:55:38;18.10;97.30
62573;DHT22;48626;51.678;5.806;2022-08-19T05:58:04;18.10;97.40
62573;DHT22;48626;51.678;5.806;2022-08-19T06:00:33;18.10;97.50
62573;DHT22;48626;51.678;5.806;2022-08-19T06:02:59;18.20;97.60
62573;DHT22;48626;51.678;5.806;2022-08-19T06:05:31;18.30;97.70
62573;DHT22;48626;51.678;5.806;2022-08-19T06:07:57;18.40;97.70
62573;DHT22;48626;51.678;5.806;2022-08-19T06:10:24;18.30;97.80
62573;DHT22;48626;51.678;5.806;2022-08-19T06:12:49;18.50;97.70
62573;DHT22;48626;51.678;5.806;2022-08-19T06:15:15;18.50;97.70
62573;DHT22;48626;51.678;5.806;2022-08-19T06:17:42;18.60;97.70
62573;DHT22;48626;51.678;5.806;2022-08-19T06:20:11;18.70;97.60
62573;DHT22;48626;51.678;5.806;2022-08-19T06:22:43;18.70;97.50
62573;DHT22;48626;51.678;5.806;2022-08-19T06:25:10;18.70;97.30
62573;DHT22;48626;51.678;5.806;2022-08-19T06:27:38;18.90;97.20
62573;DHT22;48626;51.678;5.806;2022-08-19T06:30:04;18.90;97.10
62573;DHT22;48626;51.678;5.806;2022-08-19T06:32:30;19.00;96.90
62573;DHT22;48626;51.678;5.806;2022-08-19T06:34:56;19.00;96.60
62573;DHT22;48626;51.678;5.806;2022-08-19T06:37:21;19.00;96.60
62573;DHT22;48626;51.678;5.806;2022-08-19T06:39:48;19.10;96.60
62573;DHT22;48626;51.678;5.806;2022-08-19T06:42:16;19.10;96.50
62573;DHT22;48626;51.678;5.806;2022-08-19T06:44:47;19.10;96.00
62573;DHT22;48626;51.678;5.806;2022-08-19T06:47:17;19.10;96.30
62573;DHT22;48626;51.678;5.806;2022-08-19T06:49:43;19.20;96.40
62573;DHT22;48626;51.678;5.806;2022-08-19T06:52:09;19.30;96.30
62573;DHT22;48626;51.678;5.806;2022-08-19T06:54:37;19.40;96.20
62573;DHT22;48626;51.678;5.806;2022-08-19T06:57:05;19.40;96.20
62573;DHT22;48626;51.678;5.806;2022-08-19T06:59:32;19.50;96.10
62573;DHT22;48626;51.678;5.806;2022-08-19T07:02:03;19.60;96.00
62573;DHT22;48626;51.678;5.806;2022-08-19T07:04:31;19.60;95.90
62573;DHT22;48626;51.678;5.806;2022-08-19T07:07:09;19.80;95.80
62573;DHT22;48626;51.678;5.806;2022-08-19T07:09:40;19.90;95.90
62573;DHT22;48626;51.678;5.806;2022-08-19T07:12:08;20.00;95.60
62573;DHT22;48626;51.678;5.806;2022-08-19T07:14:36;20.10;95.50
62573;DHT22;48626;51.678;5.806;2022-08-19T07:17:05;20.20;95.40
62573;DHT22;48626;51.678;5.806;2022-08-19T07:19:31;20.20;95.60
62573;DHT22;48626;51.678;5.806;2022-08-19T07:21:58;20.30;95.10
62573;DHT22;48626;51.678;5.806;2022-08-19T07:24:27;20.40;95.00
62573;DHT22;48626;51.678;5.806;2022-08-19T07:26:55;20.50;94.90
62573;DHT22;48626;51.678;5.806;2022-08-19T07:29:23;20.60;94.70
62573;DHT22;48626;51.678;5.806;2022-08-19T07:31:52;20.70;94.60
62573;DHT22;48626;51.678;5.806;2022-08-19T07:34:22;20.80;94.50
62573;DHT22;48626;51.678;5.806;2022-08-19T07:36:48;20.80;93.90
62573;DHT22;48626;51.678;5.806;2022-08-19T07:39:18;20.90;93.70
62573;DHT22;48626;51.678;5.806;2022-08-19T07:41:45;21.00;93.80
62573;DHT22;48626;51.678;5.806;2022-08-19T07:44:12;21.10;93.60
62573;DHT22;48626;51.678;5.806;2022-08-19T07:46:44;21.10;93.30
62573;DHT22;48626;51.678;5.806;2022-08-19T07:49:11;21.20;93.10
62573;DHT22;48626;51.678;5.806;2022-08-19T07:52:13;21.20;93.10
62573;DHT22;48626;51.678;5.806;2022-08-19T07:54:39;21.40;93.10
62573;DHT22;48626;51.678;5.806;2022-08-19T07:57:07;21.40;92.60
62573;DHT22;48626;51.678;5.806;2022-08-19T07:59:32;21.40;92.30
62573;DHT22;48626;51.678;5.806;2022-08-19T08:01:58;21.50;92.10
62573;DHT22;48626;51.678;5.806;2022-08-19T08:04:29;21.60;91.90
62573;DHT22;48626;51.678;5.806;2022-08-19T08:07:13;21.60;92.10
62573;DHT22;48626;51.678;5.806;2022-08-19T08:09:58;21.70;91.70
62573;DHT22;48626;51.678;5.806;2022-08-19T08:12:32;21.80;91.60
62573;DHT22;48626;51.678;5.806;2022-08-19T08:15:00;22.00;91.80
62573;DHT22;48626;51.678;5.806;2022-08-19T08:17:31;22.10;91.50
62573;DHT22;48626;51.678;5.806;2022-08-19T08:19:57;22.20;91.40
62573;DHT22;48626;51.678;5.806;2022-08-19T08:22:23;22.30;91.40
62573;DHT22;48626;51.678;5.806;2022-08-19T08:25:15;22.50;91.20
62573;DHT22;48626;51.678;5.806;2022-08-19T08:27:42;22.60;90.70
62573;DHT22;48626;51.678;5.806;2022-08-19T08:30:14;22.70;90.50
62573;DHT22;48626;51.678;5.806;2022-08-19T08:32:41;22.80;90.00
62573;DHT22;48626;51.678;5.806;2022-08-19T08:35:10;22.70;88.90
62573;DHT22;48626;51.678;5.806;2022-08-19T08:37:36;22.70;89.10
62573;DHT22;48626;51.678;5.806;2022-08-19T08:40:21;22.80;88.40
62573;DHT22;48626;51.678;5.806;2022-08-19T08:42:56;22.80;86.40
62573;DHT22;48626;51.678;5.806;2022-08-19T08:45:26;22.80;85.80
62573;DHT22;48626;51.678;5.806;2022-08-19T08:47:54;23.00;86.60
62573;DHT22;48626;51.678;5.806;2022-08-19T08:50:22;23.20;87.70
62573;DHT22;48626;51.678;5.806;2022-08-19T08:52:52;23.30;87.40
62573;DHT22;48626;51.678;5.806;2022-08-19T08:55:26;23.50;85.20
62573;DHT22;48626;51.678;5.806;2022-08-19T08:58:12;23.70;86.30
62573;DHT22;48626;51.678;5.806;2022-08-19T09:00:46;23.90;87.10
62573;DHT22;48626;51.678;5.806;2022-08-19T09:03:24;24.00;86.30
62573;DHT22;48626;51.678;5.806;2022-08-19T09:06:00;24.20;85.60
62573;DHT22;48626;51.678;5.806;2022-08-19T09:08:49;24.20;81.60
62573;DHT22;48626;51.678;5.806;2022-08-19T09:16:53;24.10;79.90
62573;DHT22;48626;51.678;5.806;2022-08-19T09:19:18;24.10;78.70
62573;DHT22;48626;51.678;5.806;2022-08-19T09:21:44;24.20;79.60
62573;DHT22;48626;51.678;5.806;2022-08-19T09:24:10;24.50;81.10
62573;DHT22;48626;51.678;5.806;2022-08-19T09:26:36;24.50;79.10
62573;DHT22;48626;51.678;5.806;2022-08-19T09:29:02;24.90;80.30
62573;DHT22;48626;51.678;5.806;2022-08-19T09:31:31;24.90;77.40
62573;DHT22;48626;51.678;5.806;2022-08-19T09:33:58;24.80;77.50
62573;DHT22;48626;51.678;5.806;2022-08-19T09:36:27;24.80;76.90
62573;DHT22;48626;51.678;5.806;2022-08-19T09:38:54;24.90;77.30
62573;DHT22;48626;51.678;5.806;2022-08-19T09:41:22;24.90;76.90
62573;DHT22;48626;51.678;5.806;2022-08-19T09:43:51;25.00;76.70
62573;DHT22;48626;51.678;5.806;2022-08-19T09:46:18;25.10;77.50
62573;DHT22;48626;51.678;5.806;2022-08-19T09:48:46;25.10;77.30
62573;DHT22;48626;51.678;5.806;2022-08-19T09:51:22;25.00;76.30
62573;DHT22;48626;51.678;5.806;2022-08-19T09:53:50;25.10;76.70
62573;DHT22;48626;51.678;5.806;2022-08-19T09:56:17;25.10;76.00
62573;DHT22;48626;51.678;5.806;2022-08-19T09:58:44;25.10;75.40
62573;DHT22;48626;51.678;5.806;2022-08-19T10:01:19;25.10;74.70
62573;DHT22;48626;51.678;5.806;2022-08-19T10:03:48;25.30;75.30
62573;DHT22;48626;51.678;5.806;2022-08-19T10:06:14;25.50;74.40
62573;DHT22;48626;51.678;5.806;2022-08-19T10:08:39;25.80;73.50
62573;DHT22;48626;51.678;5.806;2022-08-19T10:11:05;25.90;72.40
62573;DHT22;48626;51.678;5.806;2022-08-19T10:13:32;26.10;73.10
62573;DHT22;48626;51.678;5.806;2022-08-19T10:16:09;26.10;70.80
62573;DHT22;48626;51.678;5.806;2022-08-19T10:18:36;26.10;71.90
62573;DHT22;48626;51.678;5.806;2022-08-19T10:21:14;25.90;70.40
62573;DHT22;48626;51.678;5.806;2022-08-19T10:23:44;25.80;70.10
62573;DHT22;48626;51.678;5.806;2022-08-19T10:26:12;25.80;69.80
62573;DHT22;48626;51.678;5.806;2022-08-19T10:28:38;26.00;69.20
62573;DHT22;48626;51.678;5.806;2022-08-19T10:31:13;26.10;70.30
62573;DHT22;48626;51.678;5.806;2022-08-19T10:33:40;26.30;71.20
62573;DHT22;48626;51.678;5.806;2022-08-19T10:36:09;26.10;69.50
62573;DHT22;48626;51.678;5.806;2022-08-19T10:38:36;26.10;70.00
62573;DHT22;48626;51.678;5.806;2022-08-19T10:41:13;26.10;69.50
62573;DHT22;48626;51.678;5.806;2022-08-19T10:43:40;25.90;68.40
62573;DHT22;48626;51.678;5.806;2022-08-19T10:46:09;25.80;69.60
62573;DHT22;48626;51.678;5.806;2022-08-19T10:48:36;25.90;70.70
62573;DHT22;48626;51.678;5.806;2022-08-19T10:51:02;26.10;70.70
62573;DHT22;48626;51.678;5.806;2022-08-19T10:53:47;26.40;68.30
62573;DHT22;48626;51.678;5.806;2022-08-19T10:56:13;27.10;69.00
62573;DHT22;48626;51.678;5.806;2022-08-19T10:58:57;27.40;67.40
62573;DHT22;48626;51.678;5.806;2022-08-19T11:01:24;27.30;64.70
62573;DHT22;48626;51.678;5.806;2022-08-19T11:03:50;27.60;65.60
62573;DHT22;48626;51.678;5.806;2022-08-19T11:06:16;28.10;67.40
62573;DHT22;48626;51.678;5.806;2022-08-19T11:08:41;28.50;63.80
62573;DHT22;48626;51.678;5.806;2022-08-19T11:11:11;28.30;61.80
62573;DHT22;48626;51.678;5.806;2022-08-19T11:13:39;28.20;60.70
62573;DHT22;48626;51.678;5.806;2022-08-19T11:16:11;28.00;61.80
62573;DHT22;48626;51.678;5.806;2022-08-19T11:18:41;27.80;63.40
62573;DHT22;48626;51.678;5.806;2022-08-19T11:23:40;27.40;66.80
62573;DHT22;48626;51.678;5.806;2022-08-19T11:26:06;27.70;64.60
62573;DHT22;48626;51.678;5.806;2022-08-19T11:28:32;27.90;63.90
62573;DHT22;48626;51.678;5.806;2022-08-19T11:30:57;27.60;62.90
62573;DHT22;48626;51.678;5.806;2022-08-19T11:33:23;27.60;64.30
62573;DHT22;48626;51.678;5.806;2022-08-19T11:35:52;27.40;64.30
62573;DHT22;48626;51.678;5.806;2022-08-19T11:38:17;27.40;64.40
62573;DHT22;48626;51.678;5.806;2022-08-19T11:40:43;27.90;65.60
62573;DHT22;48626;51.678;5.806;2022-08-19T11:43:09;28.10;65.10
62573;DHT22;48626;51.678;5.806;2022-08-19T11:45:35;27.70;63.20
62573;DHT22;48626;51.678;5.806;2022-08-19T11:48:01;27.60;63.60
62573;DHT22;48626;51.678;5.806;2022-08-19T11:50:27;28.20;64.00
62573;DHT22;48626;51.678;5.806;2022-08-19T11:52:55;29.10;62.20
62573;DHT22;48626;51.678;5.806;2022-08-19T11:55:21;30.00;63.40
62573;DHT22;48626;51.678;5.806;2022-08-19T11:57:47;30.50;58.20
62573;DHT22;48626;51.678;5.806;2022-08-19T12:00:14;30.10;57.10
62573;DHT22;48626;51.678;5.806;2022-08-19T12:02:40;30.20;58.10
62573;DHT22;48626;51.678;5.806;2022-08-19T12:05:06;30.80;60.30
62573;DHT22;48626;51.678;5.806;2022-08-19T12:07:33;30.80;58.30
62573;DHT22;48626;51.678;5.806;2022-08-19T12:09:59;30.50;56.70
62573;DHT22;48626;51.678;5.806;2022-08-19T12:12:26;30.60;56.10
62573;DHT22;48626;51.678;5.806;2022-08-19T12:14:53;31.10;55.50
62573;DHT22;48626;51.678;5.806;2022-08-19T12:17:25;31.80;57.70
62573;DHT22;48626;51.678;5.806;2022-08-19T12:19:51;31.70;53.90
62573;DHT22;48626;51.678;5.806;2022-08-19T12:22:17;31.30;54.00
62573;DHT22;48626;51.678;5.806;2022-08-19T12:24:43;31.20;54.40
62573;DHT22;48626;51.678;5.806;2022-08-19T12:27:08;31.40;54.70
62573;DHT22;48626;51.678;5.806;2022-08-19T12:29:34;31.40;54.20
62573;DHT22;48626;51.678;5.806;2022-08-19T12:32:00;31.50;53.00
62573;DHT22;48626;51.678;5.806;2022-08-19T12:34:29;31.30;54.10
62573;DHT22;48626;51.678;5.806;2022-08-19T12:36:57;31.00;55.20
62573;DHT22;48626;51.678;5.806;2022-08-19T12:39:23;31.00;53.70
62573;DHT22;48626;51.678;5.806;2022-08-19T12:41:48;31.30;52.20
62573;DHT22;48626;51.678;5.806;2022-08-19T12:44:14;31.70;54.00
62573;DHT22;48626;51.678;5.806;2022-08-19T12:46:40;32.40;51.80
62573;DHT22;48626;51.678;5.806;2022-08-19T12:49:06;32.90;51.10
62573;DHT22;48626;51.678;5.806;2022-08-19T12:51:31;33.10;52.30
62573;DHT22;48626;51.678;5.806;2022-08-19T12:53:57;32.70;49.70
62573;DHT22;48626;51.678;5.806;2022-08-19T12:56:23;32.50;51.90
62573;DHT22;48626;51.678;5.806;2022-08-19T12:58:48;32.80;52.00
62573;DHT22;48626;51.678;5.806;2022-08-19T13:01:16;33.30;49.60
62573;DHT22;48626;51.678;5.806;2022-08-19T13:03:44;33.80;50.20
62573;DHT22;48626;51.678;5.806;2022-08-19T13:06:10;33.90;49.60
62573;DHT22;48626;51.678;5.806;2022-08-19T13:08:36;33.80;47.00
62573;DHT22;48626;51.678;5.806;2022-08-19T13:11:10;33.80;47.80
62573;DHT22;48626;51.678;5.806;2022-08-19T13:13:38;33.80;48.20
62573;DHT22;48626;51.678;5.806;2022-08-19T13:16:07;33.70;46.80
62573;DHT22;48626;51.678;5.806;2022-08-19T13:18:32;34.00;47.40
62573;DHT22;48626;51.678;5.806;2022-08-19T13:21:03;34.20;47.20
62573;DHT22;48626;51.678;5.806;2022-08-19T13:23:29;34.30;48.10
62573;DHT22;48626;51.678;5.806;2022-08-19T13:26:00;34.20;48.60
62573;DHT22;48626;51.678;5.806;2022-08-19T13:28:25;34.30;47.70
62573;DHT22;48626;51.678;5.806;2022-08-19T13:30:51;34.30;46.80
62573;DHT22;48626;51.678;5.806;2022-08-19T13:33:46;33.90;45.10
62573;DHT22;48626;51.678;5.806;2022-08-19T13:36:12;33.90;45.20
62573;DHT22;48626;51.678;5.806;2022-08-19T13:38:37;34.00;45.80
62573;DHT22;48626;51.678;5.806;2022-08-19T13:41:05;33.90;46.20
62573;DHT22;48626;51.678;5.806;2022-08-19T13:43:30;34.00;48.50
62573;DHT22;48626;51.678;5.806;2022-08-19T13:45:56;33.80;49.40
62573;DHT22;48626;51.678;5.806;2022-08-19T13:48:22;33.10;47.50
62573;DHT22;48626;51.678;5.806;2022-08-19T13:50:48;32.50;48.20
62573;DHT22;48626;51.678;5.806;2022-08-19T13:53:15;31.80;48.50
62573;DHT22;48626;51.678;5.806;2022-08-19T13:55:42;31.40;49.30
62573;DHT22;48626;51.678;5.806;2022-08-19T13:58:09;31.10;51.40
62573;DHT22;48626;51.678;5.806;2022-08-19T14:00:40;31.00;53.20
62573;DHT22;48626;51.678;5.806;2022-08-19T14:03:06;31.00;53.90
62573;DHT22;48626;51.678;5.806;2022-08-19T14:05:32;30.90;52.70
62573;DHT22;48626;51.678;5.806;2022-08-19T14:07:58;30.80;54.10
62573;DHT22;48626;51.678;5.806;2022-08-19T14:10:25;30.70;54.00
62573;DHT22;48626;51.678;5.806;2022-08-19T14:12:56;30.50;54.50
62573;DHT22;48626;51.678;5.806;2022-08-19T14:15:24;30.20;54.50
62573;DHT22;48626;51.678;5.806;2022-08-19T14:17:50;30.00;54.40
62573;DHT22;48626;51.678;5.806;2022-08-19T14:20:17;29.90;56.00
62573;DHT22;48626;51.678;5.806;2022-08-19T14:22:43;29.90;56.10
62573;DHT22;48626;51.678;5.806;2022-08-19T14:25:13;29.90;58.40
62573;DHT22;48626;51.678;5.806;2022-08-19T14:27:40;29.70;57.00
62573;DHT22;48626;51.678;5.806;2022-08-19T14:30:09;29.80;58.00
62573;DHT22;48626;51.678;5.806;2022-08-19T14:32:35;29.80;57.80
62573;DHT22;48626;51.678;5.806;2022-08-19T14:35:05;29.80;56.60
62573;DHT22;48626;51.678;5.806;2022-08-19T14:37:33;29.70;57.30
62573;DHT22;48626;51.678;5.806;2022-08-19T14:39:59;29.60;59.20
62573;DHT22;48626;51.678;5.806;2022-08-19T14:42:25;29.70;59.50
62573;DHT22;48626;51.678;5.806;2022-08-19T14:44:51;29.90;58.60
62573;DHT22;48626;51.678;5.806;2022-08-19T14:47:16;29.70;58.10
62573;DHT22;48626;51.678;5.806;2022-08-19T14:49:42;29.70;57.70
62573;DHT22;48626;51.678;5.806;2022-08-19T14:52:08;29.70;59.40
62573;DHT22;48626;51.678;5.806;2022-08-19T14:54:33;29.90;59.20
62573;DHT22;48626;51.678;5.806;2022-08-19T14:56:59;30.10;58.00
62573;DHT22;48626;51.678;5.806;2022-08-19T14:59:25;30.30;56.80
62573;DHT22;48626;51.678;5.806;2022-08-19T15:01:50;30.30;57.20
62573;DHT22;48626;51.678;5.806;2022-08-19T15:04:16;30.20;56.30
62573;DHT22;48626;51.678;5.806;2022-08-19T15:06:42;29.70;57.10
62573;DHT22;48626;51.678;5.806;2022-08-19T15:09:08;29.40;58.20
62573;DHT22;48626;51.678;5.806;2022-08-19T15:11:34;29.10;59.70
62573;DHT22;48626;51.678;5.806;2022-08-19T15:14:00;28.90;61.50
62573;DHT22;48626;51.678;5.806;2022-08-19T15:16:27;28.70;61.30
62573;DHT22;48626;51.678;5.806;2022-08-19T15:18:55;28.60;60.80
62573;DHT22;48626;51.678;5.806;2022-08-19T15:21:23;28.40;62.70
62573;DHT22;48626;51.678;5.806;2022-08-19T15:23:50;28.30;62.10
62573;DHT22;48626;51.678;5.806;2022-08-19T15:26:17;28.20;61.40
62573;DHT22;48626;51.678;5.806;2022-08-19T15:28:44;28.00;61.70
62573;DHT22;48626;51.678;5.806;2022-08-19T15:31:10;27.90;62.80
62573;DHT22;48626;51.678;5.806;2022-08-19T15:33:39;27.80;61.60
62573;DHT22;48626;51.678;5.806;2022-08-19T15:36:07;27.70;63.70
62573;DHT22;48626;51.678;5.806;2022-08-19T15:38:34;27.70;66.00
62573;DHT22;48626;51.678;5.806;2022-08-19T15:41:01;27.60;64.80
62573;DHT22;48626;51.678;5.806;2022-08-19T15:43:45;27.50;63.30
62573;DHT22;48626;51.678;5.806;2022-08-19T15:46:11;27.30;64.20
62573;DHT22;48626;51.678;5.806;2022-08-19T15:48:44;27.20;65.80